createdAt,value
2023-02-27T00:03:02.334Z,64.65
2023-02-27T00:06:31.099Z,64.50
2023-02-27T00:10:11.787Z,64.66
2023-02-27T00:17:28.904Z,65.04
2023-02-27T00:20:56.829Z,65.15
2023-02-27T00:24:33.634Z,65.62
2023-02-27T00:28:08.587Z,65.57
2023-02-27T00:31:37.380Z,65.85
2023-02-27T00:39:08.848Z,66.70
2023-02-27T00:42:39.352Z,66.12
2023-02-27T00:46:12.380Z,66.15
2023-02-27T00:49:48.934Z,66.07
2023-02-27T00:53:23.096Z,65.93
2023-02-27T00:57:00.489Z,66.01
2023-02-27T01:00:35.910Z,66.17
2023-02-27T01:04:14.144Z,66.36
2023-02-27T01:07:50.334Z,66.72
2023-02-27T01:11:24.784Z,66.68
2023-02-27T01:14:59.016Z,66.51
2023-02-27T01:18:34.542Z,66.16
2023-02-27T01:22:13.321Z,65.57
2023-02-27T01:25:44.481Z,65.65
2023-02-27T01:29:25.587Z,65.20
2023-02-27T01:32:56.701Z,65.29
2023-02-27T01:36:19.511Z,65.39
2023-02-27T01:39:37.664Z,65.52
2023-02-27T01:43:18.204Z,65.27
2023-02-27T01:46:59.497Z,65.49
2023-02-27T01:50:23.107Z,64.90
2023-02-27T01:57:28.173Z,64.61
2023-02-27T02:01:20.752Z,64.07
2023-02-27T02:04:53.236Z,64.46
2023-02-27T02:08:20.420Z,64.17
2023-02-27T02:12:00.040Z,63.59
2023-02-27T02:15:43.035Z,63.90
2023-02-27T02:19:44.466Z,63.87
2023-02-27T02:23:45.069Z,62.71
2023-02-27T02:27:20.289Z,62.24
2023-02-27T02:31:16.047Z,62.30
2023-02-27T02:35:31.667Z,61.82
2023-02-27T02:39:15.025Z,62.01
2023-02-27T02:42:55.037Z,61.71
2023-02-27T02:47:04.007Z,62.68
2023-02-27T02:50:37.870Z,62.16
2023-02-27T02:54:11.742Z,62.50
2023-02-27T02:58:00.123Z,62.35
2023-02-27T03:01:49.366Z,62.47
2023-02-27T03:05:28.679Z,62.38
2023-02-27T03:09:20.830Z,61.49
2023-02-27T03:12:59.763Z,61.04
2023-02-27T03:16:41.896Z,62.04
2023-02-27T03:20:09.889Z,61.75
2023-02-27T03:23:52.013Z,61.68
2023-02-27T03:27:40.035Z,61.33
2023-02-27T03:31:23.702Z,61.42
2023-02-27T03:34:46.118Z,60.36
2023-02-27T03:38:47.873Z,60.30
2023-02-27T03:42:39.387Z,60.34
2023-02-27T03:46:07.511Z,60.78
2023-02-27T03:49:35.774Z,60.75
2023-02-27T03:53:21.060Z,59.86
2023-02-27T03:57:04.254Z,59.73
2023-02-27T04:00:39.914Z,59.53
2023-02-27T04:04:17.041Z,59.37
2023-02-27T04:08:01.143Z,59.05
2023-02-27T04:11:45.902Z,59.81
2023-02-27T04:15:47.870Z,59.45
2023-02-27T04:19:39.662Z,59.78
2023-02-27T04:23:27.406Z,58.78
2023-02-27T04:26:58.458Z,58.30
2023-02-27T04:30:45.667Z,58.39
2023-02-27T04:34:42.739Z,58.78
2023-02-27T04:38:29.593Z,58.92
2023-02-27T04:41:57.754Z,58.29
2023-02-27T04:45:36.183Z,58.35
2023-02-27T04:49:18.044Z,57.95
2023-02-27T04:53:02.152Z,57.52
2023-02-27T04:56:28.877Z,57.61
2023-02-27T05:00:16.995Z,57.93
2023-02-27T05:03:55.589Z,58.48
2023-02-27T05:07:43.796Z,58.78
2023-02-27T05:11:53.364Z,58.16
2023-02-27T05:15:35.023Z,58.07
2023-02-27T05:18:52.601Z,58.59
2023-02-27T05:22:52.016Z,58.41
2023-02-27T05:26:43.639Z,58.43
2023-02-27T05:30:27.283Z,58.62
2023-02-27T05:34:01.667Z,58.75
2023-02-27T05:37:41.040Z,58.96
2023-02-27T05:41:27.754Z,59.00
2023-02-27T05:45:18.440Z,58.77
2023-02-27T05:49:00.767Z,58.34
2023-02-27T05:52:42.504Z,57.78
2023-02-27T05:56:22.943Z,57.58
2023-02-27T06:00:14.141Z,58.43
2023-02-27T06:03:54.388Z,57.77
2023-02-27T06:07:37.444Z,56.98
2023-02-27T06:11:13.431Z,57.42
2023-02-27T06:14:48.390Z,56.35
2023-02-27T06:18:06.326Z,58.25
2023-02-27T06:21:40.258Z,56.63
2023-02-27T06:25:09.719Z,57.16
2023-02-27T06:28:38.970Z,57.09
2023-02-27T06:32:17.288Z,56.65
2023-02-27T06:35:54.134Z,56.29
2023-02-27T06:39:34.018Z,56.61
2023-02-27T06:42:57.986Z,55.50
2023-02-27T06:46:26.470Z,55.76
2023-02-27T06:49:58.927Z,55.35
2023-02-27T06:53:35.490Z,55.31
2023-02-27T06:57:10.281Z,53.43
2023-02-27T07:00:37.712Z,53.83
2023-02-27T07:04:15.244Z,53.00
2023-02-27T07:08:13.463Z,52.46
2023-02-27T07:12:33.335Z,52.15
2023-02-27T07:16:30.207Z,52.04
2023-02-27T07:20:58.743Z,52.98
2023-02-27T07:24:37.633Z,52.32
2023-02-27T07:28:00.443Z,51.50
2023-02-27T07:31:28.963Z,51.32
2023-02-27T07:35:31.799Z,50.58
2023-02-27T07:39:16.598Z,50.48
2023-02-27T07:43:01.099Z,49.93
2023-02-27T07:46:47.552Z,50.67
2023-02-27T07:50:32.454Z,49.79
2023-02-27T07:54:02.089Z,49.53
2023-02-27T07:58:02.912Z,49.66
2023-02-27T08:01:36.463Z,49.12
2023-02-27T08:05:12.326Z,48.79
2023-02-27T08:09:20.948Z,48.69
2023-02-27T08:16:46.755Z,49.34
2023-02-27T08:21:19.683Z,49.50
2023-02-27T08:24:24.156Z,49.18
2023-02-27T08:28:07.170Z,49.11
2023-02-27T08:47:22.231Z,48.28
2023-02-27T08:55:28.112Z,48.36
2023-02-27T09:02:32.984Z,47.71
2023-02-27T09:03:06.427Z,47.74
2023-02-27T09:10:59.630Z,46.25
2023-02-27T09:14:52.935Z,45.71
2023-02-27T09:18:44.368Z,45.72
2023-02-27T09:34:21.328Z,45.15
2023-02-27T10:03:06.691Z,43.66
2023-02-27T10:06:54.867Z,42.20
2023-02-27T10:20:24.559Z,41.86
2023-02-27T10:33:14.842Z,40.87
2023-02-27T10:37:03.530Z,40.93
2023-02-27T10:40:42.733Z,41.15
2023-02-27T10:44:19.078Z,40.86
2023-02-27T10:47:57.517Z,41.62
2023-02-27T10:51:21.513Z,39.82
2023-02-27T10:54:46.402Z,40.22
2023-02-27T10:58:35.144Z,39.81
2023-02-27T11:02:32.564Z,39.37
2023-02-27T11:06:16.327Z,38.43
2023-02-27T11:10:14.041Z,39.02
2023-02-27T11:13:49.075Z,39.38
2023-02-27T11:17:23.776Z,40.72
2023-02-27T11:21:31.814Z,40.84
2023-02-27T11:32:53.379Z,40.92
2023-02-27T11:36:43.740Z,40.40
2023-02-27T11:52:33.507Z,35.22
2023-02-27T11:57:17.107Z,37.24
2023-02-27T12:04:56.840Z,36.76
2023-02-27T12:16:38.582Z,39.59
2023-02-27T12:20:42.135Z,39.01
2023-02-27T12:37:34.483Z,38.08
2023-02-27T12:41:39.793Z,38.01
2023-02-27T12:46:12.700Z,38.08
2023-02-27T12:51:41.626Z,37.76
2023-02-27T12:55:35.908Z,38.56
2023-02-27T13:11:38.692Z,39.91
2023-02-27T14:15:16.238Z,39.57
2023-02-27T14:25:27.379Z,40.07
2023-02-27T15:03:47.190Z,41.83
2023-02-27T15:08:50.106Z,42.48
2023-02-27T15:12:46.607Z,42.45
2023-02-27T15:17:50.264Z,42.79
2023-02-27T15:26:45.389Z,44.15
2023-02-27T15:31:27.316Z,44.23
2023-02-27T15:43:09.057Z,46.51
2023-02-27T15:47:30.937Z,46.03
2023-02-27T23:59:28.173Z,66.17
